National Weather Service United States Department of Commerce

Northern Arizona Aviation

NWS Flagstaff Logo

 

The weather information provided on this page does not meet the FAA requirements for a pre-flight weather briefing. Call 1-800-WXBRIEF for a briefing from an FAA Flight Service Specialist prior to departure.

NWS Flagstaff Logo

Click on a plane icon to view aviation weather resources for airports in northern Arizona

TAF Site TAF Site Non-TAF Site Non TAF Site
Northern Arizona Terminal Aerodrome Forecasts (TAFs)

000
FTUS45 KFGZ 272320
TAFFLG
TAF
KFLG 272320Z 2800/2824 07012KT P6SM SKC
FM280100 09004KT P6SM SKC=

 

Landing Minimums: 300' and/or 1/2 SM
Alternate Airfield Minimums: 600' and/or 2 SM

000
FTUS45 KFGZ 272320
TAFPRC
TAF
KPRC 272320Z 2800/2824 VRB05KT P6SM SKC=

 

Landing Minimums: 200' and/or 1/2 SM
Alternate Airfield Minimums: 600' and/or 2 SM

000
FTUS45 KFGZ 272320
TAFSEZ
TAF
KSEZ 272320Z 2800/2824 VRB04KT P6SM SKC
FM280200 05010G16KT P6SM SKC
FM281500 VRB05KT P6SM SKC=

 

Landing Minimums: 1400' and/or 1 1/2 SM
Alternate Airfield Minimums: Not Applicable

000
FTUS45 KFGZ 272320
TAFGCN
TAF
KGCN 272320Z 2800/2824 08006KT P6SM SKC=

 

Landing Minimums: 200' and/or 3/4 SM
Alternate Airfield Minimums: 600' and/or 2 SM

000
FTUS45 KFGZ 272320
TAFINW
TAF
KINW 272320Z 2800/2824 VRB06KT P6SM SKC=

 

Landing Minimums: 500' and/or 1 SM
Alternate Airfield Minimums: 800' and/or 2 SM

000
FTUS45 KFGZ 272320
TAFPGA
TAF
KPGA 272320Z 2800/2824 VRB03KT P6SM SKC=

 

Landing Minimums: 300' and/or 1 SM
Alternate Airfield Minimums: 800' and/or 2 SM
Quick Links

Aviation Discussion

Digital Aviation Forecasts

TAF Site Impacts Board

Radar

Satellite

AIRMETs

SIGMETs

Pilot Reports

NWS & Aviation

Center Weather Service Units

Albuquerque

Denver

Los Angeles

Salt Lake City

Aviation Weather Center

FAA Western-Pacific Region Airports Division Information